sensor_id;sensor_type;location;lat;lon;timestamp;temperature;humidity
20610;DHT22;10463;52.378;9.688;2022-12-10T00:02:20;20.70;23.90
20610;DHT22;10463;52.378;9.688;2022-12-10T00:05:07;20.70;23.80
20610;DHT22;10463;52.378;9.688;2022-12-10T00:07:52;20.70;23.80
20610;DHT22;10463;52.378;9.688;2022-12-10T00:10:39;20.70;24.30
20610;DHT22;10463;52.378;9.688;2022-12-10T00:13:24;20.70;23.70
20610;DHT22;10463;52.378;9.688;2022-12-10T00:16:12;20.60;23.60
20610;DHT22;10463;52.378;9.688;2022-12-10T00:18:57;20.60;23.60
20610;DHT22;10463;52.378;9.688;2022-12-10T00:21:43;20.60;23.50
20610;DHT22;10463;52.378;9.688;2022-12-10T00:24:29;20.60;23.60
20610;DHT22;10463;52.378;9.688;2022-12-10T00:27:13;20.60;23.60
20610;DHT22;10463;52.378;9.688;2022-12-10T00:29:58;20.60;23.50
20610;DHT22;10463;52.378;9.688;2022-12-10T00:32:43;20.50;23.50
20610;DHT22;10463;52.378;9.688;2022-12-10T00:35:28;20.50;23.40
20610;DHT22;10463;52.378;9.688;2022-12-10T00:38:13;20.50;23.40
20610;DHT22;10463;52.378;9.688;2022-12-10T00:40:58;20.50;23.50
20610;DHT22;10463;52.378;9.688;2022-12-10T00:43:44;20.40;23.40
20610;DHT22;10463;52.378;9.688;2022-12-10T00:46:29;20.40;23.40
20610;DHT22;10463;52.378;9.688;2022-12-10T00:49:14;20.40;23.40
20610;DHT22;10463;52.378;9.688;2022-12-10T00:51:59;20.40;23.40
20610;DHT22;10463;52.378;9.688;2022-12-10T00:54:45;20.40;23.40
20610;DHT22;10463;52.378;9.688;2022-12-10T00:57:29;20.40;23.40
20610;DHT22;10463;52.378;9.688;2022-12-10T01:00:15;20.40;23.40
20610;DHT22;10463;52.378;9.688;2022-12-10T01:03:00;20.30;23.30
20610;DHT22;10463;52.378;9.688;2022-12-10T01:05:45;20.30;23.30
20610;DHT22;10463;52.378;9.688;2022-12-10T01:08:29;20.30;23.30
20610;DHT22;10463;52.378;9.688;2022-12-10T01:11:19;20.30;23.30
20610;DHT22;10463;52.378;9.688;2022-12-10T01:14:06;20.30;23.30
20610;DHT22;10463;52.378;9.688;2022-12-10T01:16:55;20.30;23.30
20610;DHT22;10463;52.378;9.688;2022-12-10T01:19:41;20.20;23.30
20610;DHT22;10463;52.378;9.688;2022-12-10T01:22:25;20.20;23.30
20610;DHT22;10463;52.378;9.688;2022-12-10T01:25:10;20.20;23.30
20610;DHT22;10463;52.378;9.688;2022-12-10T01:27:58;20.20;23.30
20610;DHT22;10463;52.378;9.688;2022-12-10T01:30:42;20.20;23.30
20610;DHT22;10463;52.378;9.688;2022-12-10T01:33:27;20.10;23.20
20610;DHT22;10463;52.378;9.688;2022-12-10T01:36:15;20.10;23.20
20610;DHT22;10463;52.378;9.688;2022-12-10T01:39:03;20.10;23.20
20610;DHT22;10463;52.378;9.688;2022-12-10T01:41:52;20.10;23.20
20610;DHT22;10463;52.378;9.688;2022-12-10T01:45:07;20.10;23.20
20610;DHT22;10463;52.378;9.688;2022-12-10T01:47:52;20.10;23.20
20610;DHT22;10463;52.378;9.688;2022-12-10T01:50:37;20.00;23.20
20610;DHT22;10463;52.378;9.688;2022-12-10T01:53:23;20.00;23.20
20610;DHT22;10463;52.378;9.688;2022-12-10T01:56:09;20.00;23.20
20610;DHT22;10463;52.378;9.688;2022-12-10T01:58:56;20.00;23.20
20610;DHT22;10463;52.378;9.688;2022-12-10T02:01:51;20.00;23.20
20610;DHT22;10463;52.378;9.688;2022-12-10T02:04:45;20.00;23.20
20610;DHT22;10463;52.378;9.688;2022-12-10T02:07:48;19.90;23.20
20610;DHT22;10463;52.378;9.688;2022-12-10T02:10:46;19.90;23.20
20610;DHT22;10463;52.378;9.688;2022-12-10T02:13:39;19.90;23.20
20610;DHT22;10463;52.378;9.688;2022-12-10T02:16:33;19.90;23.20
20610;DHT22;10463;52.378;9.688;2022-12-10T02:19:25;19.90;23.20
20610;DHT22;10463;52.378;9.688;2022-12-10T02:22:18;19.90;23.20
20610;DHT22;10463;52.378;9.688;2022-12-10T02:25:06;19.80;23.10
20610;DHT22;10463;52.378;9.688;2022-12-10T02:28:01;19.90;23.20
20610;DHT22;10463;52.378;9.688;2022-12-10T02:30:50;19.80;23.10
20610;DHT22;10463;52.378;9.688;2022-12-10T02:33:41;19.80;23.20
20610;DHT22;10463;52.378;9.688;2022-12-10T02:36:30;19.80;23.10
20610;DHT22;10463;52.378;9.688;2022-12-10T02:39:20;19.70;23.10
20610;DHT22;10463;52.378;9.688;2022-12-10T02:42:11;19.70;23.10
20610;DHT22;10463;52.378;9.688;2022-12-10T02:45:00;19.80;23.10
20610;DHT22;10463;52.378;9.688;2022-12-10T02:47:47;19.70;23.10
20610;DHT22;10463;52.378;9.688;2022-12-10T02:50:34;19.70;23.10
20610;DHT22;10463;52.378;9.688;2022-12-10T02:53:20;19.70;23.10
20610;DHT22;10463;52.378;9.688;2022-12-10T02:56:14;19.70;23.10
20610;DHT22;10463;52.378;9.688;2022-12-10T02:59:15;19.60;23.00
20610;DHT22;10463;52.378;9.688;2022-12-10T03:02:11;19.70;23.10
20610;DHT22;10463;52.378;9.688;2022-12-10T03:05:04;19.60;23.60
20610;DHT22;10463;52.378;9.688;2022-12-10T03:07:55;19.60;23.00
20610;DHT22;10463;52.378;9.688;2022-12-10T03:10:49;19.60;23.00
20610;DHT22;10463;52.378;9.688;2022-12-10T03:13:43;19.60;23.00
20610;DHT22;10463;52.378;9.688;2022-12-10T03:16:35;19.60;23.00
20610;DHT22;10463;52.378;9.688;2022-12-10T03:19:26;19.60;23.00
20610;DHT22;10463;52.378;9.688;2022-12-10T03:22:18;19.60;23.00
20610;DHT22;10463;52.378;9.688;2022-12-10T03:25:05;19.50;23.00
20610;DHT22;10463;52.378;9.688;2022-12-10T03:27:54;19.50;22.90
20610;DHT22;10463;52.378;9.688;2022-12-10T03:30:42;19.50;22.90
20610;DHT22;10463;52.378;9.688;2022-12-10T03:33:28;19.50;22.90
20610;DHT22;10463;52.378;9.688;2022-12-10T03:36:14;19.50;22.90
20610;DHT22;10463;52.378;9.688;2022-12-10T03:39:01;19.50;22.90
20610;DHT22;10463;52.378;9.688;2022-12-10T03:41:46;19.50;22.90
20610;DHT22;10463;52.378;9.688;2022-12-10T03:44:34;19.50;22.90
20610;DHT22;10463;52.378;9.688;2022-12-10T03:47:20;19.50;22.90
20610;DHT22;10463;52.378;9.688;2022-12-10T03:50:05;19.40;22.90
20610;DHT22;10463;52.378;9.688;2022-12-10T03:52:51;19.40;22.90
20610;DHT22;10463;52.378;9.688;2022-12-10T03:55:37;19.40;22.90
20610;DHT22;10463;52.378;9.688;2022-12-10T03:58:22;19.40;22.90
20610;DHT22;10463;52.378;9.688;2022-12-10T04:01:07;19.40;22.90
20610;DHT22;10463;52.378;9.688;2022-12-10T04:03:51;19.40;22.90
20610;DHT22;10463;52.378;9.688;2022-12-10T04:06:38;19.40;23.00
20610;DHT22;10463;52.378;9.688;2022-12-10T04:09:23;19.40;23.00
20610;DHT22;10463;52.378;9.688;2022-12-10T04:12:09;19.40;23.00
20610;DHT22;10463;52.378;9.688;2022-12-10T04:14:54;19.40;23.00
20610;DHT22;10463;52.378;9.688;2022-12-10T04:17:57;19.40;23.00
20610;DHT22;10463;52.378;9.688;2022-12-10T04:20:42;19.30;22.90
20610;DHT22;10463;52.378;9.688;2022-12-10T04:23:46;19.30;22.90
20610;DHT22;10463;52.378;9.688;2022-12-10T04:26:49;19.30;23.00
20610;DHT22;10463;52.378;9.688;2022-12-10T04:29:39;19.30;23.00
20610;DHT22;10463;52.378;9.688;2022-12-10T04:32:26;19.30;23.00
20610;DHT22;10463;52.378;9.688;2022-12-10T04:35:11;19.30;23.00
20610;DHT22;10463;52.378;9.688;2022-12-10T04:37:56;19.30;22.90
20610;DHT22;10463;52.378;9.688;2022-12-10T04:40:41;19.30;23.00
20610;DHT22;10463;52.378;9.688;2022-12-10T04:43:26;19.30;22.90
20610;DHT22;10463;52.378;9.688;2022-12-10T04:46:12;19.30;22.90
20610;DHT22;10463;52.378;9.688;2022-12-10T04:48:57;19.20;22.90
20610;DHT22;10463;52.378;9.688;2022-12-10T04:51:43;19.20;22.90
20610;DHT22;10463;52.378;9.688;2022-12-10T04:54:28;19.20;22.90
20610;DHT22;10463;52.378;9.688;2022-12-10T04:57:14;19.20;22.90
20610;DHT22;10463;52.378;9.688;2022-12-10T04:59:59;19.20;22.90
20610;DHT22;10463;52.378;9.688;2022-12-10T05:02:48;19.20;22.90
20610;DHT22;10463;52.378;9.688;2022-12-10T05:05:34;19.20;22.90
20610;DHT22;10463;52.378;9.688;2022-12-10T05:08:19;19.20;22.90
20610;DHT22;10463;52.378;9.688;2022-12-10T05:11:05;19.20;22.90
20610;DHT22;10463;52.378;9.688;2022-12-10T05:13:51;19.20;22.90
20610;DHT22;10463;52.378;9.688;2022-12-10T05:16:37;19.20;22.90
20610;DHT22;10463;52.378;9.688;2022-12-10T05:19:23;19.10;22.80
20610;DHT22;10463;52.378;9.688;2022-12-10T05:22:10;19.10;22.80
20610;DHT22;10463;52.378;9.688;2022-12-10T05:25:14;19.10;22.80
20610;DHT22;10463;52.378;9.688;2022-12-10T05:27:59;19.10;22.80
20610;DHT22;10463;52.378;9.688;2022-12-10T05:30:43;19.10;22.90
20610;DHT22;10463;52.378;9.688;2022-12-10T05:33:28;19.10;22.80
20610;DHT22;10463;52.378;9.688;2022-12-10T05:36:17;19.10;22.90
20610;DHT22;10463;52.378;9.688;2022-12-10T05:39:03;19.10;22.90
20610;DHT22;10463;52.378;9.688;2022-12-10T05:41:48;19.10;22.90
20610;DHT22;10463;52.378;9.688;2022-12-10T05:44:32;19.10;22.90
20610;DHT22;10463;52.378;9.688;2022-12-10T05:47:17;19.00;22.80
20610;DHT22;10463;52.378;9.688;2022-12-10T05:50:03;19.00;22.80
20610;DHT22;10463;52.378;9.688;2022-12-10T05:52:52;19.00;22.80
20610;DHT22;10463;52.378;9.688;2022-12-10T05:55:40;19.00;22.80
20610;DHT22;10463;52.378;9.688;2022-12-10T05:58:26;19.00;22.80
20610;DHT22;10463;52.378;9.688;2022-12-10T06:01:15;19.00;22.80
20610;DHT22;10463;52.378;9.688;2022-12-10T06:04:02;19.00;22.80
20610;DHT22;10463;52.378;9.688;2022-12-10T06:06:48;19.00;22.80
20610;DHT22;10463;52.378;9.688;2022-12-10T06:09:35;19.00;22.80
20610;DHT22;10463;52.378;9.688;2022-12-10T06:12:20;19.00;22.90
20610;DHT22;10463;52.378;9.688;2022-12-10T06:15:06;19.00;23.50
20610;DHT22;10463;52.378;9.688;2022-12-10T06:17:51;18.90;22.90
20610;DHT22;10463;52.378;9.688;2022-12-10T06:20:39;18.90;22.90
20610;DHT22;10463;52.378;9.688;2022-12-10T06:23:24;18.90;22.90
20610;DHT22;10463;52.378;9.688;2022-12-10T06:26:12;18.90;23.00
20610;DHT22;10463;52.378;9.688;2022-12-10T06:28:57;18.90;22.90
20610;DHT22;10463;52.378;9.688;2022-12-10T06:31:41;18.90;23.00
20610;DHT22;10463;52.378;9.688;2022-12-10T06:34:26;18.90;22.90
20610;DHT22;10463;52.378;9.688;2022-12-10T06:37:11;18.90;23.00
20610;DHT22;10463;52.378;9.688;2022-12-10T06:39:56;18.90;23.00
20610;DHT22;10463;52.378;9.688;2022-12-10T06:42:42;18.90;22.90
20610;DHT22;10463;52.378;9.688;2022-12-10T06:45:27;18.90;22.90
20610;DHT22;10463;52.378;9.688;2022-12-10T06:48:11;18.90;22.90
20610;DHT22;10463;52.378;9.688;2022-12-10T06:50:56;18.90;22.90
20610;DHT22;10463;52.378;9.688;2022-12-10T06:53:41;18.90;22.80
20610;DHT22;10463;52.378;9.688;2022-12-10T06:56:26;18.90;22.80
20610;DHT22;10463;52.378;9.688;2022-12-10T06:59:12;18.90;22.80
20610;DHT22;10463;52.378;9.688;2022-12-10T07:01:58;18.90;22.90
20610;DHT22;10463;52.378;9.688;2022-12-10T07:04:43;18.90;22.80
20610;DHT22;10463;52.378;9.688;2022-12-10T07:07:27;18.90;22.80
20610;DHT22;10463;52.378;9.688;2022-12-10T07:10:12;18.90;22.90
20610;DHT22;10463;52.378;9.688;2022-12-10T07:12:57;18.90;22.90
20610;DHT22;10463;52.378;9.688;2022-12-10T07:15:43;18.90;22.90
20610;DHT22;10463;52.378;9.688;2022-12-10T07:18:27;18.90;23.00
20610;DHT22;10463;52.378;9.688;2022-12-10T07:21:16;19.00;23.00
20610;DHT22;10463;52.378;9.688;2022-12-10T07:24:05;18.90;23.00
20610;DHT22;10463;52.378;9.688;2022-12-10T07:26:49;18.90;23.00
20610;DHT22;10463;52.378;9.688;2022-12-10T07:29:34;18.90;23.50
20610;DHT22;10463;52.378;9.688;2022-12-10T07:32:20;19.00;23.00
20610;DHT22;10463;52.378;9.688;2022-12-10T07:35:06;19.00;23.00
20610;DHT22;10463;52.378;9.688;2022-12-10T07:37:51;19.00;23.00
20610;DHT22;10463;52.378;9.688;2022-12-10T07:40:36;19.00;23.00
20610;DHT22;10463;52.378;9.688;2022-12-10T07:43:21;19.00;23.00
20610;DHT22;10463;52.378;9.688;2022-12-10T07:46:07;19.00;23.00
20610;DHT22;10463;52.378;9.688;2022-12-10T07:48:54;19.00;23.00
20610;DHT22;10463;52.378;9.688;2022-12-10T07:51:39;19.00;23.00
20610;DHT22;10463;52.378;9.688;2022-12-10T07:54:24;19.00;23.00
20610;DHT22;10463;52.378;9.688;2022-12-10T07:57:09;19.00;23.00
20610;DHT22;10463;52.378;9.688;2022-12-10T07:59:53;19.00;23.00
20610;DHT22;10463;52.378;9.688;2022-12-10T08:02:38;19.00;23.00
20610;DHT22;10463;52.378;9.688;2022-12-10T08:05:24;19.00;23.00
20610;DHT22;10463;52.378;9.688;2022-12-10T08:08:09;19.00;23.00
20610;DHT22;10463;52.378;9.688;2022-12-10T08:10:53;19.00;23.00
20610;DHT22;10463;52.378;9.688;2022-12-10T08:13:38;19.00;22.90
20610;DHT22;10463;52.378;9.688;2022-12-10T08:16:24;19.00;23.00
20610;DHT22;10463;52.378;9.688;2022-12-10T08:19:12;19.00;22.90
20610;DHT22;10463;52.378;9.688;2022-12-10T08:21:59;19.10;23.00
20610;DHT22;10463;52.378;9.688;2022-12-10T08:24:44;19.10;23.00
20610;DHT22;10463;52.378;9.688;2022-12-10T08:27:29;19.10;23.00
20610;DHT22;10463;52.378;9.688;2022-12-10T08:30:13;19.10;23.00
20610;DHT22;10463;52.378;9.688;2022-12-10T08:32:58;19.10;23.00
20610;DHT22;10463;52.378;9.688;2022-12-10T08:35:43;19.10;23.00
20610;DHT22;10463;52.378;9.688;2022-12-10T08:38:29;19.10;23.00
20610;DHT22;10463;52.378;9.688;2022-12-10T08:41:18;19.10;23.00
20610;DHT22;10463;52.378;9.688;2022-12-10T08:44:03;19.10;23.00
20610;DHT22;10463;52.378;9.688;2022-12-10T08:46:48;19.10;23.00
20610;DHT22;10463;52.378;9.688;2022-12-10T08:49:32;19.10;22.90
20610;DHT22;10463;52.378;9.688;2022-12-10T08:52:17;19.10;23.00
20610;DHT22;10463;52.378;9.688;2022-12-10T08:55:04;19.10;23.00
20610;DHT22;10463;52.378;9.688;2022-12-10T08:57:49;19.10;22.90
20610;DHT22;10463;52.378;9.688;2022-12-10T09:00:35;19.10;22.90
20610;DHT22;10463;52.378;9.688;2022-12-10T09:03:20;19.20;23.00
20610;DHT22;10463;52.378;9.688;2022-12-10T09:06:07;19.20;23.00
20610;DHT22;10463;52.378;9.688;2022-12-10T09:08:52;19.20;23.00
20610;DHT22;10463;52.378;9.688;2022-12-10T09:11:39;19.20;23.50
20610;DHT22;10463;52.378;9.688;2022-12-10T09:14:24;19.20;23.00
20610;DHT22;10463;52.378;9.688;2022-12-10T09:17:09;19.20;23.00
20610;DHT22;10463;52.378;9.688;2022-12-10T09:19:54;19.20;23.00
20610;DHT22;10463;52.378;9.688;2022-12-10T09:22:38;19.20;23.00
20610;DHT22;10463;52.378;9.688;2022-12-10T09:25:23;19.20;22.90
20610;DHT22;10463;52.378;9.688;2022-12-10T09:28:09;19.20;22.90
20610;DHT22;10463;52.378;9.688;2022-12-10T09:30:57;19.20;22.90
20610;DHT22;10463;52.378;9.688;2022-12-10T09:33:43;19.20;22.90
20610;DHT22;10463;52.378;9.688;2022-12-10T09:36:28;19.20;22.90
20610;DHT22;10463;52.378;9.688;2022-12-10T09:39:13;19.20;22.90
20610;DHT22;10463;52.378;9.688;2022-12-10T09:42:14;19.20;22.90
20610;DHT22;10463;52.378;9.688;2022-12-10T09:45:10;19.20;23.00
20610;DHT22;10463;52.378;9.688;2022-12-10T09:48:02;19.20;22.90
20610;DHT22;10463;52.378;9.688;2022-12-10T09:50:56;19.20;22.90
20610;DHT22;10463;52.378;9.688;2022-12-10T09:53:43;19.20;22.90
20610;DHT22;10463;52.378;9.688;2022-12-10T09:56:33;19.30;23.00
20610;DHT22;10463;52.378;9.688;2022-12-10T09:59:21;19.20;22.90
20610;DHT22;10463;52.378;9.688;2022-12-10T10:02:21;19.30;23.00
20610;DHT22;10463;52.378;9.688;2022-12-10T10:05:13;19.30;23.00
20610;DHT22;10463;52.378;9.688;2022-12-10T10:08:04;19.30;23.00
20610;DHT22;10463;52.378;9.688;2022-12-10T10:10:49;19.30;23.00
20610;DHT22;10463;52.378;9.688;2022-12-10T10:13:38;19.30;23.00
20610;DHT22;10463;52.378;9.688;2022-12-10T10:16:26;19.30;23.00
20610;DHT22;10463;52.378;9.688;2022-12-10T10:19:16;19.30;22.90
20610;DHT22;10463;52.378;9.688;2022-12-10T10:22:02;19.30;22.90
20610;DHT22;10463;52.378;9.688;2022-12-10T10:24:47;19.30;22.90
20610;DHT22;10463;52.378;9.688;2022-12-10T10:27:32;19.30;22.90
20610;DHT22;10463;52.378;9.688;2022-12-10T10:30:21;19.30;23.00
20610;DHT22;10463;52.378;9.688;2022-12-10T10:33:09;19.30;22.90
20610;DHT22;10463;52.378;9.688;2022-12-10T10:35:58;19.30;22.90
20610;DHT22;10463;52.378;9.688;2022-12-10T10:38:48;19.30;22.90
20610;DHT22;10463;52.378;9.688;2022-12-10T10:41:36;19.30;22.90
20610;DHT22;10463;52.378;9.688;2022-12-10T10:44:27;19.30;22.90
20610;DHT22;10463;52.378;9.688;2022-12-10T10:47:27;19.30;22.90
20610;DHT22;10463;52.378;9.688;2022-12-10T10:50:23;19.30;22.90
20610;DHT22;10463;52.378;9.688;2022-12-10T10:53:40;19.30;22.90
20610;DHT22;10463;52.378;9.688;2022-12-10T10:56:30;19.30;22.90
20610;DHT22;10463;52.378;9.688;2022-12-10T10:59:32;19.30;22.90
20610;DHT22;10463;52.378;9.688;2022-12-10T11:02:24;19.30;22.90
20610;DHT22;10463;52.378;9.688;2022-12-10T11:05:19;19.30;22.90
20610;DHT22;10463;52.378;9.688;2022-12-10T11:08:13;19.30;22.90
20610;DHT22;10463;52.378;9.688;2022-12-10T11:11:05;19.40;23.00
20610;DHT22;10463;52.378;9.688;2022-12-10T11:13:50;19.40;23.00
20610;DHT22;10463;52.378;9.688;2022-12-10T11:16:35;19.40;23.00
20610;DHT22;10463;52.378;9.688;2022-12-10T11:19:23;19.40;23.00
20610;DHT22;10463;52.378;9.688;2022-12-10T11:22:21;19.40;23.00
20610;DHT22;10463;52.378;9.688;2022-12-10T11:25:12;19.40;22.90
20610;DHT22;10463;52.378;9.688;2022-12-10T11:28:01;19.40;23.00
20610;DHT22;10463;52.378;9.688;2022-12-10T11:30:53;19.40;22.90
20610;DHT22;10463;52.378;9.688;2022-12-10T11:33:49;19.40;23.00
20610;DHT22;10463;52.378;9.688;2022-12-10T11:36:47;19.40;23.00
20610;DHT22;10463;52.378;9.688;2022-12-10T11:40:00;19.40;23.00
20610;DHT22;10463;52.378;9.688;2022-12-10T11:43:00;19.40;22.90
20610;DHT22;10463;52.378;9.688;2022-12-10T11:45:59;19.40;22.90
20610;DHT22;10463;52.378;9.688;2022-12-10T11:48:59;19.40;22.90
20610;DHT22;10463;52.378;9.688;2022-12-10T11:51:51;19.40;23.00
20610;DHT22;10463;52.378;9.688;2022-12-10T11:55:01;19.40;23.00
20610;DHT22;10463;52.378;9.688;2022-12-10T11:57:52;19.40;23.00
20610;DHT22;10463;52.378;9.688;2022-12-10T12:00:46;19.40;23.00
20610;DHT22;10463;52.378;9.688;2022-12-10T12:07:24;19.40;22.90
20610;DHT22;10463;52.378;9.688;2022-12-10T12:10:43;19.40;22.90
20610;DHT22;10463;52.378;9.688;2022-12-10T12:13:34;19.40;23.00
20610;DHT22;10463;52.378;9.688;2022-12-10T12:16:26;19.40;22.90
20610;DHT22;10463;52.378;9.688;2022-12-10T12:19:17;19.40;23.60
20610;DHT22;10463;52.378;9.688;2022-12-10T12:22:14;19.40;22.90
20610;DHT22;10463;52.378;9.688;2022-12-10T12:25:03;19.40;22.90
20610;DHT22;10463;52.378;9.688;2022-12-10T12:27:53;19.40;22.90
20610;DHT22;10463;52.378;9.688;2022-12-10T12:30:41;19.40;22.90
20610;DHT22;10463;52.378;9.688;2022-12-10T12:33:39;19.50;23.00
20610;DHT22;10463;52.378;9.688;2022-12-10T12:36:28;19.40;22.90
20610;DHT22;10463;52.378;9.688;2022-12-10T12:39:22;19.50;23.00
20610;DHT22;10463;52.378;9.688;2022-12-10T12:42:19;19.40;22.90
20610;DHT22;10463;52.378;9.688;2022-12-10T12:45:13;19.50;23.00
20610;DHT22;10463;52.378;9.688;2022-12-10T12:48:09;19.50;23.50
20610;DHT22;10463;52.378;9.688;2022-12-10T12:51:02;19.50;22.90
20610;DHT22;10463;52.378;9.688;2022-12-10T12:53:47;19.50;22.90
20610;DHT22;10463;52.378;9.688;2022-12-10T12:56:58;19.50;22.90
20610;DHT22;10463;52.378;9.688;2022-12-10T12:59:54;19.50;22.90
20610;DHT22;10463;52.378;9.688;2022-12-10T13:02:53;19.50;22.90
20610;DHT22;10463;52.378;9.688;2022-12-10T13:05:40;19.50;22.90
20610;DHT22;10463;52.378;9.688;2022-12-10T13:08:30;19.50;22.90
20610;DHT22;10463;52.378;9.688;2022-12-10T13:11:41;19.50;22.90
20610;DHT22;10463;52.378;9.688;2022-12-10T13:14:34;19.50;22.90
20610;DHT22;10463;52.378;9.688;2022-12-10T13:17:31;19.50;22.90
20610;DHT22;10463;52.378;9.688;2022-12-10T13:20:31;19.50;22.90
20610;DHT22;10463;52.378;9.688;2022-12-10T13:23:35;19.50;22.90
20610;DHT22;10463;52.378;9.688;2022-12-10T13:26:31;19.50;22.90
20610;DHT22;10463;52.378;9.688;2022-12-10T13:29:25;19.50;22.90
20610;DHT22;10463;52.378;9.688;2022-12-10T13:32:15;19.50;22.90
20610;DHT22;10463;52.378;9.688;2022-12-10T13:35:27;19.50;22.90
20610;DHT22;10463;52.378;9.688;2022-12-10T13:38:24;19.50;22.90
20610;DHT22;10463;52.378;9.688;2022-12-10T13:41:10;19.50;22.90
20610;DHT22;10463;52.378;9.688;2022-12-10T13:44:45;19.50;22.90
20610;DHT22;10463;52.378;9.688;2022-12-10T13:47:43;19.50;22.90
20610;DHT22;10463;52.378;9.688;2022-12-10T13:50:36;19.50;22.90
20610;DHT22;10463;52.378;9.688;2022-12-10T13:53:36;19.50;22.90
20610;DHT22;10463;52.378;9.688;2022-12-10T13:56:28;19.50;22.90
20610;DHT22;10463;52.378;9.688;2022-12-10T13:59:28;19.50;22.90
20610;DHT22;10463;52.378;9.688;2022-12-10T14:02:42;19.50;22.90
20610;DHT22;10463;52.378;9.688;2022-12-10T14:05:46;19.50;22.90
20610;DHT22;10463;52.378;9.688;2022-12-10T14:08:36;19.50;22.90
20610;DHT22;10463;52.378;9.688;2022-12-10T14:11:28;19.50;22.90
20610;DHT22;10463;52.378;9.688;2022-12-10T14:14:24;19.50;22.90
20610;DHT22;10463;52.378;9.688;2022-12-10T14:17:15;19.50;22.90
20610;DHT22;10463;52.378;9.688;2022-12-10T14:20:03;19.50;22.90
20610;DHT22;10463;52.378;9.688;2022-12-10T14:22:50;19.50;22.80
20610;DHT22;10463;52.378;9.688;2022-12-10T14:25:41;19.50;22.80
20610;DHT22;10463;52.378;9.688;2022-12-10T14:28:30;19.50;22.80
20610;DHT22;10463;52.378;9.688;2022-12-10T14:31:21;19.50;22.80
20610;DHT22;10463;52.378;9.688;2022-12-10T14:34:11;19.50;23.40
20610;DHT22;10463;52.378;9.688;2022-12-10T14:37:02;19.50;22.80
20610;DHT22;10463;52.378;9.688;2022-12-10T14:39:48;19.50;22.80
20610;DHT22;10463;52.378;9.688;2022-12-10T14:42:32;19.50;22.80
20610;DHT22;10463;52.378;9.688;2022-12-10T14:45:19;19.50;22.80
20610;DHT22;10463;52.378;9.688;2022-12-10T14:48:04;19.50;22.80
20610;DHT22;10463;52.378;9.688;2022-12-10T14:51:04;19.50;22.80
20610;DHT22;10463;52.378;9.688;2022-12-10T14:53:51;19.50;22.80
20610;DHT22;10463;52.378;9.688;2022-12-10T14:56:38;19.50;22.80
20610;DHT22;10463;52.378;9.688;2022-12-10T14:59:25;19.50;22.80
20610;DHT22;10463;52.378;9.688;2022-12-10T15:02:21;19.50;22.80
20610;DHT22;10463;52.378;9.688;2022-12-10T15:05:12;19.50;22.80
20610;DHT22;10463;52.378;9.688;2022-12-10T15:08:00;19.50;22.80
20610;DHT22;10463;52.378;9.688;2022-12-10T15:10:50;19.50;22.80
20610;DHT22;10463;52.378;9.688;2022-12-10T15:13:40;19.50;22.80
20610;DHT22;10463;52.378;9.688;2022-12-10T15:16:39;19.50;22.80
20610;DHT22;10463;52.378;9.688;2022-12-10T15:19:32;19.50;22.80
20610;DHT22;10463;52.378;9.688;2022-12-10T15:22:20;19.50;22.80
20610;DHT22;10463;52.378;9.688;2022-12-10T15:25:25;19.50;22.80
20610;DHT22;10463;52.378;9.688;2022-12-10T15:28:24;19.50;22.80
20610;DHT22;10463;52.378;9.688;2022-12-10T15:31:22;19.50;22.80
20610;DHT22;10463;52.378;9.688;2022-12-10T15:34:13;19.50;22.80
20610;DHT22;10463;52.378;9.688;2022-12-10T15:37:03;19.50;22.80
20610;DHT22;10463;52.378;9.688;2022-12-10T15:39:52;19.50;22.80
20610;DHT22;10463;52.378;9.688;2022-12-10T15:42:40;19.50;23.40
20610;DHT22;10463;52.378;9.688;2022-12-10T15:45:27;19.50;22.80
20610;DHT22;10463;52.378;9.688;2022-12-10T15:48:21;19.50;22.80
20610;DHT22;10463;52.378;9.688;2022-12-10T15:51:08;19.50;22.80
20610;DHT22;10463;52.378;9.688;2022-12-10T15:53:54;19.50;22.80
20610;DHT22;10463;52.378;9.688;2022-12-10T15:56:38;19.50;22.80
20610;DHT22;10463;52.378;9.688;2022-12-10T15:59:23;19.50;22.80
20610;DHT22;10463;52.378;9.688;2022-12-10T16:02:25;19.50;22.80
20610;DHT22;10463;52.378;9.688;2022-12-10T16:05:14;19.50;22.80
20610;DHT22;10463;52.378;9.688;2022-12-10T16:08:09;19.50;22.80
20610;DHT22;10463;52.378;9.688;2022-12-10T16:11:01;19.50;22.80
20610;DHT22;10463;52.378;9.688;2022-12-10T16:13:52;19.50;22.90
20610;DHT22;10463;52.378;9.688;2022-12-10T16:16:37;19.50;22.80
20610;DHT22;10463;52.378;9.688;2022-12-10T16:19:22;19.50;22.80
20610;DHT22;10463;52.378;9.688;2022-12-10T16:22:06;19.50;22.80
20610;DHT22;10463;52.378;9.688;2022-12-10T16:24:51;19.50;22.80
20610;DHT22;10463;52.378;9.688;2022-12-10T16:27:38;19.50;22.80
20610;DHT22;10463;52.378;9.688;2022-12-10T16:30:33;19.50;22.80
20610;DHT22;10463;52.378;9.688;2022-12-10T16:33:20;19.50;22.80
20610;DHT22;10463;52.378;9.688;2022-12-10T16:36:06;19.50;22.80
20610;DHT22;10463;52.378;9.688;2022-12-10T16:38:51;19.50;22.80
20610;DHT22;10463;52.378;9.688;2022-12-10T16:41:35;19.50;22.80
20610;DHT22;10463;52.378;9.688;2022-12-10T16:44:22;19.50;22.80
20610;DHT22;10463;52.378;9.688;2022-12-10T16:47:11;19.50;22.80
20610;DHT22;10463;52.378;9.688;2022-12-10T16:49:56;19.50;22.80
20610;DHT22;10463;52.378;9.688;2022-12-10T16:52:41;19.50;22.80
20610;DHT22;10463;52.378;9.688;2022-12-10T16:55:26;19.50;22.80
20610;DHT22;10463;52.378;9.688;2022-12-10T16:58:12;19.50;22.80
20610;DHT22;10463;52.378;9.688;2022-12-10T17:01:00;19.50;22.80
20610;DHT22;10463;52.378;9.688;2022-12-10T17:03:45;19.50;22.80
20610;DHT22;10463;52.378;9.688;2022-12-10T17:06:30;19.50;22.80
20610;DHT22;10463;52.378;9.688;2022-12-10T17:09:15;19.50;22.80
20610;DHT22;10463;52.378;9.688;2022-12-10T17:12:00;19.50;22.80
20610;DHT22;10463;52.378;9.688;2022-12-10T17:14:45;19.50;22.80
20610;DHT22;10463;52.378;9.688;2022-12-10T17:17:32;19.50;22.80
20610;DHT22;10463;52.378;9.688;2022-12-10T17:20:18;19.50;22.80
20610;DHT22;10463;52.378;9.688;2022-12-10T17:23:03;19.50;22.80
20610;DHT22;10463;52.378;9.688;2022-12-10T17:25:48;19.50;22.80
20610;DHT22;10463;52.378;9.688;2022-12-10T17:28:33;19.50;22.80
20610;DHT22;10463;52.378;9.688;2022-12-10T17:31:18;19.50;22.80
20610;DHT22;10463;52.378;9.688;2022-12-10T17:34:08;19.50;22.80
20610;DHT22;10463;52.378;9.688;2022-12-10T17:36:53;19.50;22.80
20610;DHT22;10463;52.378;9.688;2022-12-10T17:39:38;19.50;22.80
20610;DHT22;10463;52.378;9.688;2022-12-10T17:42:23;19.50;22.80
20610;DHT22;10463;52.378;9.688;2022-12-10T17:45:10;19.50;22.80
20610;DHT22;10463;52.378;9.688;2022-12-10T17:47:55;19.50;22.80
20610;DHT22;10463;52.378;9.688;2022-12-10T17:50:43;19.50;22.80
20610;DHT22;10463;52.378;9.688;2022-12-10T17:53:28;19.50;22.80